createdAt,value
2023-02-04T00:00:19.347Z,68.42
2023-02-04T00:02:46.190Z,68.48
2023-02-04T00:05:13.775Z,68.38
2023-02-04T00:07:41.445Z,68.21
2023-02-04T00:10:09.231Z,68.28
2023-02-04T00:12:36.219Z,68.20
2023-02-04T00:15:03.085Z,68.15
2023-02-04T00:17:29.683Z,68.22
2023-02-04T00:19:56.265Z,67.98
2023-02-04T00:22:23.072Z,67.97
2023-02-04T00:24:50.643Z,68.11
2023-02-04T00:27:17.716Z,68.10
2023-02-04T00:29:44.462Z,68.21
2023-02-04T00:32:11.224Z,68.27
2023-02-04T00:34:38.047Z,68.21
2023-02-04T00:37:04.734Z,68.23
2023-02-04T00:39:31.581Z,68.14
2023-02-04T00:41:58.595Z,68.19
2023-02-04T00:44:25.465Z,68.26
2023-02-04T00:46:52.118Z,68.35
2023-02-04T00:49:18.725Z,68.30
2023-02-04T00:51:46.837Z,68.26
2023-02-04T00:54:16.217Z,68.46
2023-02-04T00:56:44.232Z,68.44
2023-02-04T00:59:11.561Z,68.55
2023-02-04T01:01:38.650Z,68.69
2023-02-04T01:04:05.866Z,68.61
2023-02-04T01:06:33.383Z,68.46
2023-02-04T01:09:01.479Z,68.58
2023-02-04T01:11:30.839Z,68.93
2023-02-04T01:13:57.933Z,68.85
2023-02-04T01:16:25.702Z,68.88
2023-02-04T01:18:55.811Z,68.81
2023-02-04T01:21:24.910Z,68.60
2023-02-04T01:23:52.156Z,68.33
2023-02-04T01:26:19.962Z,68.38
2023-02-04T01:28:47.357Z,68.37
2023-02-04T01:31:15.023Z,68.24
2023-02-04T01:33:41.928Z,68.26
2023-02-04T01:36:09.042Z,68.09
2023-02-04T01:38:35.705Z,68.16
2023-02-04T01:41:04.196Z,68.17
2023-02-04T01:43:31.993Z,68.03
2023-02-04T01:46:00.011Z,68.40
2023-02-04T01:48:26.904Z,68.20
2023-02-04T01:51:02.134Z,68.28
2023-02-04T01:53:28.959Z,68.76
2023-02-04T01:55:55.691Z,68.68
2023-02-04T01:58:22.464Z,68.70
2023-02-04T02:00:49.780Z,68.88
2023-02-04T02:03:16.583Z,68.81
2023-02-04T02:05:46.579Z,68.53
2023-02-04T02:08:14.889Z,68.53
2023-02-04T02:10:44.799Z,68.26
2023-02-04T02:13:13.483Z,68.11
2023-02-04T02:15:40.820Z,68.04
2023-02-04T02:18:08.816Z,68.81
2023-02-04T02:20:36.754Z,68.63
2023-02-04T02:23:23.656Z,68.92
2023-02-04T02:25:51.507Z,68.93
2023-02-04T02:28:21.886Z,68.81
2023-02-04T02:30:49.823Z,68.64
2023-02-04T02:33:19.813Z,68.66
2023-02-04T02:35:48.443Z,69.07
2023-02-04T02:38:17.019Z,69.21
2023-02-04T02:40:44.155Z,69.11
2023-02-04T02:43:17.316Z,69.21
2023-02-04T02:45:44.784Z,69.28
2023-02-04T02:48:11.831Z,69.14
2023-02-04T02:50:39.478Z,68.99
2023-02-04T02:53:14.346Z,69.01
2023-02-04T02:55:41.632Z,69.16
2023-02-04T02:58:16.464Z,69.28
2023-02-04T03:00:44.132Z,69.41
2023-02-04T03:03:17.752Z,69.43
2023-02-04T03:05:48.699Z,69.67
2023-02-04T03:08:17.161Z,69.62
2023-02-04T03:10:45.210Z,69.97
2023-02-04T03:13:14.648Z,69.70
2023-02-04T03:15:44.063Z,69.75
2023-02-04T03:18:12.203Z,69.67
2023-02-04T03:20:40.044Z,69.58
2023-02-04T03:23:06.827Z,69.63
2023-02-04T03:25:34.251Z,69.78
2023-02-04T03:28:01.226Z,69.67
2023-02-04T03:30:28.668Z,69.63
2023-02-04T03:32:55.997Z,69.47
2023-02-04T03:35:23.068Z,69.57
2023-02-04T03:37:50.007Z,69.82
2023-02-04T03:40:16.861Z,69.80
2023-02-04T03:42:43.524Z,69.89
2023-02-04T03:45:10.219Z,70.17
2023-02-04T03:47:36.872Z,70.36
2023-02-04T03:50:03.749Z,70.51
2023-02-04T03:52:30.412Z,70.39
2023-02-04T03:54:57.046Z,70.19
2023-02-04T03:57:23.779Z,70.06
2023-02-04T03:59:50.463Z,69.96
2023-02-04T04:02:17.060Z,69.92
2023-02-04T04:04:43.672Z,69.94
2023-02-04T04:07:10.308Z,70.02
2023-02-04T04:09:36.950Z,70.49
2023-02-04T04:12:04.630Z,70.47
2023-02-04T04:14:31.421Z,70.69
2023-02-04T04:16:58.165Z,70.24
2023-02-04T04:19:24.936Z,70.29
2023-02-04T04:21:51.722Z,70.44
2023-02-04T04:24:18.412Z,70.52
2023-02-04T04:26:45.048Z,70.63
2023-02-04T04:29:11.769Z,70.55
2023-02-04T04:31:38.500Z,70.64
2023-02-04T04:34:05.335Z,70.62
2023-02-04T04:36:32.059Z,70.87
2023-02-04T04:38:59.781Z,70.49
2023-02-04T04:41:26.543Z,70.65
2023-02-04T04:43:53.606Z,70.62
2023-02-04T04:46:20.301Z,70.43
2023-02-04T04:48:46.971Z,70.40
2023-02-04T04:51:13.715Z,70.40
2023-02-04T04:53:40.413Z,70.42
2023-02-04T04:56:07.089Z,70.72
2023-02-04T04:58:33.750Z,70.64
2023-02-04T05:01:00.535Z,70.59
2023-02-04T05:03:27.291Z,70.56
2023-02-04T05:05:53.899Z,70.44
2023-02-04T05:08:21.089Z,70.62
2023-02-04T05:10:48.193Z,70.42
2023-02-04T05:13:15.203Z,70.58
2023-02-04T05:15:42.599Z,70.41
2023-02-04T05:18:09.469Z,70.37
2023-02-04T05:20:36.071Z,70.46
2023-02-04T05:23:05.546Z,70.29
2023-02-04T05:25:32.850Z,70.47
2023-02-04T05:27:59.535Z,70.29
2023-02-04T05:30:26.165Z,70.55
2023-02-04T05:32:52.964Z,70.77
2023-02-04T05:35:20.434Z,70.83
2023-02-04T05:37:47.177Z,70.72
2023-02-04T05:40:14.113Z,70.60
2023-02-04T05:42:41.954Z,70.07
2023-02-04T05:45:18.693Z,70.05
2023-02-04T05:47:45.295Z,70.31
2023-02-04T05:50:11.900Z,70.19
2023-02-04T05:52:38.918Z,70.61
2023-02-04T05:55:05.936Z,70.64
2023-02-04T05:57:32.673Z,70.75
2023-02-04T05:59:59.278Z,70.50
2023-02-04T06:02:25.927Z,70.33
2023-02-04T06:04:52.545Z,70.74
2023-02-04T06:07:19.168Z,71.12
2023-02-04T06:09:45.792Z,71.17
2023-02-04T06:12:12.429Z,71.13
2023-02-04T06:14:39.089Z,70.96
2023-02-04T06:17:05.757Z,70.73
2023-02-04T06:19:36.500Z,70.62
2023-02-04T06:22:03.179Z,70.44
2023-02-04T06:24:29.975Z,70.45
2023-02-04T06:26:56.618Z,70.67
2023-02-04T06:29:23.291Z,70.73
2023-02-04T06:31:50.061Z,70.72
2023-02-04T06:34:16.913Z,70.89
2023-02-04T06:36:43.583Z,71.11
2023-02-04T06:39:10.193Z,71.23
2023-02-04T06:41:36.865Z,70.97
2023-02-04T06:44:03.557Z,70.77
2023-02-04T06:46:30.252Z,70.96
2023-02-04T06:48:56.967Z,70.78
2023-02-04T06:51:23.620Z,70.83
2023-02-04T06:53:50.286Z,71.17
2023-02-04T06:56:16.933Z,71.44
2023-02-04T06:58:43.519Z,71.13
2023-02-04T07:01:10.150Z,71.25
2023-02-04T07:03:36.778Z,71.14
2023-02-04T07:06:03.411Z,71.19
2023-02-04T07:08:29.999Z,71.34
2023-02-04T07:10:56.664Z,71.48
2023-02-04T07:13:23.393Z,71.33
2023-02-04T07:15:50.040Z,71.36
2023-02-04T07:18:16.844Z,70.96
2023-02-04T07:20:43.921Z,70.99
2023-02-04T07:23:10.531Z,70.81
2023-02-04T07:25:38.936Z,70.67
2023-02-04T07:28:06.134Z,70.45
2023-02-04T07:30:33.959Z,70.53
2023-02-04T07:33:00.955Z,70.56
2023-02-04T07:35:27.602Z,70.56
2023-02-04T07:37:54.222Z,70.56
2023-02-04T07:40:23.729Z,70.63
2023-02-04T07:42:50.296Z,70.74
2023-02-04T07:45:17.454Z,70.94
2023-02-04T07:47:44.080Z,70.89
2023-02-04T07:50:11.208Z,70.61
2023-02-04T07:52:37.806Z,70.47
2023-02-04T07:55:05.421Z,70.17
2023-02-04T07:57:32.163Z,69.91
2023-02-04T07:59:59.258Z,70.03
2023-02-04T08:02:26.068Z,69.86
2023-02-04T08:04:53.257Z,69.66
2023-02-04T08:07:19.874Z,69.69
2023-02-04T08:09:47.225Z,69.69
2023-02-04T08:12:13.846Z,69.38
2023-02-04T08:14:40.508Z,69.53
2023-02-04T08:17:07.225Z,69.66
2023-02-04T08:19:33.797Z,70.00
2023-02-04T08:22:00.452Z,69.80
2023-02-04T08:24:27.216Z,69.78
2023-02-04T08:26:53.795Z,69.83
2023-02-04T08:29:20.382Z,69.33
2023-02-04T08:31:47.920Z,69.23
2023-02-04T08:34:14.684Z,69.10
2023-02-04T08:36:41.386Z,68.86
2023-02-04T08:39:08.105Z,68.83
2023-02-04T08:41:34.824Z,68.61
2023-02-04T08:44:01.694Z,68.43
2023-02-04T08:46:28.393Z,68.24
2023-02-04T08:48:55.069Z,68.21
2023-02-04T08:51:21.720Z,67.67
2023-02-04T08:53:48.456Z,67.26
2023-02-04T08:56:20.597Z,67.06
2023-02-04T08:58:48.317Z,66.69
2023-02-04T09:01:15.275Z,66.69
2023-02-04T09:03:41.985Z,66.53
2023-02-04T09:06:08.905Z,66.29
2023-02-04T09:08:35.528Z,66.28
2023-02-04T09:11:02.202Z,66.05
2023-02-04T09:13:28.972Z,65.17
2023-02-04T09:15:55.643Z,64.94
2023-02-04T09:18:22.927Z,64.52
2023-02-04T09:20:50.072Z,64.65
2023-02-04T09:23:16.805Z,64.49
2023-02-04T09:25:45.073Z,64.16
2023-02-04T09:28:13.574Z,63.88
2023-02-04T09:30:41.695Z,64.39
2023-02-04T09:33:10.607Z,64.39
2023-02-04T09:35:37.856Z,63.84
2023-02-04T09:38:05.158Z,64.02
2023-02-04T09:40:36.525Z,64.02
2023-02-04T09:43:05.615Z,63.38
2023-02-04T09:45:36.640Z,63.73
2023-02-04T09:48:05.376Z,63.79
2023-02-04T09:50:32.986Z,62.94
2023-02-04T09:53:06.671Z,62.70
2023-02-04T09:55:37.950Z,62.25
2023-02-04T09:58:26.597Z,62.20
2023-02-04T10:01:01.431Z,61.56
2023-02-04T10:03:28.193Z,61.36
2023-02-04T10:05:54.846Z,61.25
2023-02-04T10:08:28.103Z,60.50
2023-02-04T10:10:57.259Z,59.71
2023-02-04T10:13:32.560Z,60.26
2023-02-04T10:16:00.331Z,59.83
2023-02-04T10:18:33.168Z,59.75
2023-02-04T10:21:21.661Z,58.37
2023-02-04T10:23:53.950Z,58.75
2023-02-04T10:26:22.153Z,57.55
2023-02-04T10:28:49.885Z,58.46
2023-02-04T10:31:38.051Z,58.39
2023-02-04T10:34:12.065Z,58.13
2023-02-04T10:36:40.504Z,58.34
2023-02-04T10:39:16.046Z,57.02
2023-02-04T10:41:52.929Z,57.14
2023-02-04T10:44:31.257Z,57.39
2023-02-04T10:47:17.014Z,57.95
2023-02-04T10:50:12.839Z,56.90
2023-02-04T10:52:46.014Z,57.78
2023-02-04T10:55:19.088Z,57.66
2023-02-04T10:57:48.555Z,57.64
2023-02-04T11:00:21.661Z,56.84
2023-02-04T11:02:49.757Z,57.52
2023-02-04T11:05:20.082Z,57.03
2023-02-04T11:07:48.614Z,56.25
2023-02-04T11:10:21.379Z,56.46
2023-02-04T11:13:02.822Z,57.12
2023-02-04T11:15:40.778Z,57.34
2023-02-04T11:18:10.339Z,57.24
2023-02-04T11:20:40.018Z,56.87
2023-02-04T11:23:25.436Z,56.55
2023-02-04T11:26:08.253Z,56.65
2023-02-04T11:28:40.808Z,55.72
2023-02-04T11:31:35.244Z,56.13
2023-02-04T11:34:21.724Z,56.39
2023-02-04T11:37:12.150Z,56.62
2023-02-04T11:39:44.907Z,56.08
2023-02-04T11:42:41.838Z,56.25
2023-02-04T11:45:14.291Z,56.20
2023-02-04T11:47:41.759Z,56.61
2023-02-04T11:50:23.658Z,56.42
2023-02-04T11:52:50.640Z,56.31
2023-02-04T11:55:20.051Z,56.38
2023-02-04T11:57:52.580Z,56.40
2023-02-04T12:00:25.997Z,56.18
2023-02-04T12:03:01.764Z,54.82
2023-02-04T12:05:42.473Z,55.02
2023-02-04T12:08:12.202Z,55.37
2023-02-04T12:10:39.197Z,55.16
2023-02-04T12:13:16.433Z,54.78
2023-02-04T12:15:55.659Z,55.24
2023-02-04T12:18:22.518Z,55.38
2023-02-04T12:20:49.231Z,55.46
2023-02-04T12:23:15.794Z,54.37
2023-02-04T12:25:42.575Z,54.75
2023-02-04T12:28:09.293Z,55.33
2023-02-04T12:30:36.415Z,55.01
2023-02-04T12:33:03.061Z,54.85
2023-02-04T12:35:29.878Z,55.14
2023-02-04T12:37:56.767Z,54.86
2023-02-04T12:40:23.379Z,54.35
2023-02-04T12:42:50.230Z,54.00
2023-02-04T12:45:17.888Z,53.09
2023-02-04T12:47:44.754Z,53.67
2023-02-04T12:50:14.714Z,53.28
2023-02-04T12:52:41.340Z,53.01
2023-02-04T12:55:09.464Z,53.54
2023-02-04T12:57:36.194Z,53.34
2023-02-04T13:00:04.049Z,54.03
2023-02-04T13:02:30.707Z,54.12
2023-02-04T13:04:57.418Z,53.65
2023-02-04T13:07:24.482Z,54.18
2023-02-04T13:09:51.186Z,53.51
2023-02-04T13:12:17.934Z,53.58
2023-02-04T13:14:44.817Z,53.78
2023-02-04T13:17:11.881Z,53.86
2023-02-04T13:19:38.540Z,53.95
2023-02-04T13:22:05.588Z,54.08
2023-02-04T13:24:32.470Z,53.81
2023-02-04T13:26:59.234Z,54.09
2023-02-04T13:29:26.168Z,54.18
2023-02-04T13:31:52.997Z,54.23
2023-02-04T13:34:19.850Z,54.06
2023-02-04T13:36:46.561Z,54.07
2023-02-04T13:39:13.143Z,54.18
2023-02-04T13:41:39.782Z,54.47
2023-02-04T13:44:06.596Z,53.79
2023-02-04T13:46:33.849Z,54.05
2023-02-04T13:49:00.565Z,54.10
2023-02-04T13:51:27.161Z,54.45
2023-02-04T13:53:53.808Z,54.74
2023-02-04T13:56:20.432Z,54.91
2023-02-04T13:58:47.056Z,54.85
2023-02-04T14:01:14.492Z,55.03
2023-02-04T14:03:42.802Z,55.10
2023-02-04T14:06:09.852Z,55.11
2023-02-04T14:08:36.790Z,54.83
2023-02-04T14:11:03.750Z,54.93
2023-02-04T14:13:30.975Z,55.05
2023-02-04T14:15:57.627Z,55.31
2023-02-04T14:18:24.360Z,55.37
2023-02-04T14:20:51.043Z,55.31
2023-02-04T14:23:17.628Z,55.41
2023-02-04T14:25:44.507Z,55.45
2023-02-04T14:28:11.231Z,55.44
2023-02-04T14:30:38.087Z,55.00
2023-02-04T14:33:04.702Z,54.25
2023-02-04T14:35:32.224Z,54.19
2023-02-04T14:37:58.882Z,53.93
2023-02-04T14:40:25.588Z,54.21
2023-02-04T14:42:52.675Z,53.79
2023-02-04T14:45:19.437Z,53.86
2023-02-04T14:47:46.437Z,54.10
2023-02-04T14:50:17.790Z,54.11
2023-02-04T14:52:44.508Z,54.10
2023-02-04T14:55:13.014Z,54.23
2023-02-04T14:57:39.837Z,54.31
2023-02-04T15:00:07.128Z,54.17
2023-02-04T15:02:33.806Z,53.55
2023-02-04T15:05:00.455Z,52.96
2023-02-04T15:07:27.070Z,53.79
2023-02-04T15:09:53.826Z,54.66
2023-02-04T15:12:20.756Z,55.43
2023-02-04T15:14:47.397Z,56.50
2023-02-04T15:17:14.110Z,56.91
2023-02-04T15:19:40.770Z,57.47
2023-02-04T15:22:07.650Z,58.41
2023-02-04T15:24:34.488Z,59.37
2023-02-04T15:27:01.145Z,59.98
2023-02-04T15:29:27.805Z,60.31
2023-02-04T15:31:54.605Z,60.02
2023-02-04T15:34:21.211Z,60.44
2023-02-04T15:36:47.879Z,60.47
2023-02-04T15:39:14.600Z,61.22
2023-02-04T15:41:41.265Z,61.13
2023-02-04T15:44:08.014Z,61.10
2023-02-04T15:46:37.419Z,61.31
2023-02-04T15:49:04.496Z,61.49
2023-02-04T15:51:31.221Z,61.48
2023-02-04T15:53:57.970Z,61.64
2023-02-04T15:56:24.621Z,61.71
2023-02-04T15:58:51.308Z,61.84
2023-02-04T16:01:18.979Z,61.77
2023-02-04T16:03:47.272Z,61.90
2023-02-04T16:06:13.926Z,62.08
2023-02-04T16:08:40.566Z,62.20
2023-02-04T16:11:07.172Z,62.26
2023-02-04T16:13:33.879Z,62.53
2023-02-04T16:16:00.534Z,62.76
2023-02-04T16:18:27.200Z,62.87
2023-02-04T16:20:53.971Z,62.83
2023-02-04T16:23:20.565Z,62.84
2023-02-04T16:25:47.205Z,62.91
2023-02-04T16:28:13.886Z,62.94
2023-02-04T16:30:40.637Z,62.98
2023-02-04T16:33:07.316Z,63.00
2023-02-04T16:36:04.398Z,63.02
2023-02-04T16:38:31.639Z,63.22
2023-02-04T16:40:58.636Z,63.17
2023-02-04T16:43:25.300Z,63.34
2023-02-04T16:45:52.350Z,63.51
2023-02-04T16:48:19.281Z,63.65
2023-02-04T16:50:45.958Z,63.86
2023-02-04T16:53:16.079Z,63.99
2023-02-04T16:55:47.981Z,63.83
2023-02-04T16:58:15.366Z,64.07
2023-02-04T17:00:44.103Z,64.40
2023-02-04T17:03:14.435Z,64.19
2023-02-04T17:05:41.933Z,64.04
2023-02-04T17:08:08.949Z,63.95
2023-02-04T17:10:54.716Z,63.57
2023-02-04T17:13:21.417Z,63.04
2023-02-04T17:15:48.298Z,62.45
2023-02-04T17:18:14.913Z,62.38
2023-02-04T17:20:41.552Z,61.96
2023-02-04T17:23:08.272Z,61.64
2023-02-04T17:25:35.174Z,61.07
2023-02-04T17:28:02.181Z,61.07
2023-02-04T17:30:29.327Z,60.56
2023-02-04T17:32:55.928Z,60.42
2023-02-04T17:35:22.578Z,59.97
2023-02-04T17:37:49.347Z,60.03
2023-02-04T17:40:16.128Z,59.83
2023-02-04T17:42:42.858Z,59.67
2023-02-04T17:45:11.131Z,59.59
2023-02-04T17:47:40.997Z,58.23
2023-02-04T17:50:10.175Z,58.47
2023-02-04T17:52:37.969Z,58.51
2023-02-04T17:55:24.324Z,58.31
2023-02-04T17:57:51.117Z,58.27
2023-02-04T18:00:21.140Z,58.28
2023-02-04T18:02:50.287Z,58.39
2023-02-04T18:05:20.224Z,58.37
2023-02-04T18:07:52.353Z,58.23
2023-02-04T18:10:29.321Z,58.28
2023-02-04T18:12:57.004Z,57.81
2023-02-04T18:15:26.819Z,57.54
2023-02-04T18:18:06.508Z,57.54
2023-02-04T18:20:33.115Z,57.42
2023-02-04T18:23:02.735Z,57.27
2023-02-04T18:25:29.840Z,57.21
2023-02-04T18:28:02.970Z,57.16
2023-02-04T18:30:29.741Z,56.87
2023-02-04T18:32:56.401Z,56.80
2023-02-04T18:35:22.934Z,56.62
2023-02-04T18:37:52.396Z,56.85
2023-02-04T18:40:26.687Z,56.78
2023-02-04T18:43:23.060Z,56.77
2023-02-04T18:45:50.074Z,56.69
2023-02-04T18:48:19.697Z,56.71
2023-02-04T18:50:48.719Z,56.49
2023-02-04T18:53:15.418Z,56.44
2023-02-04T18:55:47.573Z,56.34
2023-02-04T18:58:17.250Z,56.28
2023-02-04T19:00:49.161Z,56.24
2023-02-04T19:03:25.914Z,56.30
2023-02-04T19:05:54.382Z,56.19
2023-02-04T19:08:24.727Z,56.06
2023-02-04T19:10:53.589Z,56.07
2023-02-04T19:13:26.083Z,55.96
2023-02-04T19:15:59.865Z,55.93
2023-02-04T19:18:44.659Z,55.98
2023-02-04T19:21:23.457Z,55.87
2023-02-04T19:23:52.993Z,55.86
2023-02-04T19:26:29.586Z,55.95
2023-02-04T19:28:56.809Z,55.95
2023-02-04T19:31:32.624Z,55.90
2023-02-04T19:34:12.604Z,56.13
2023-02-04T19:36:39.900Z,56.19
2023-02-04T19:39:35.493Z,56.26
2023-02-04T19:42:19.055Z,56.38
2023-02-04T19:44:46.675Z,56.39
2023-02-04T19:47:25.625Z,56.53
2023-02-04T19:50:01.563Z,56.55
2023-02-04T19:52:36.027Z,56.64
2023-02-04T19:55:31.420Z,56.93
2023-02-04T19:58:11.588Z,56.89
2023-02-04T20:00:46.611Z,57.08
2023-02-04T20:03:42.509Z,57.13
2023-02-04T20:06:30.856Z,57.36
2023-02-04T20:09:06.568Z,57.28
2023-02-04T20:11:33.183Z,57.47
2023-02-04T20:14:15.133Z,57.57
2023-02-04T20:16:46.891Z,57.69
2023-02-04T20:19:23.119Z,57.78
2023-02-04T20:22:22.164Z,57.76
2023-02-04T20:24:57.869Z,57.94
2023-02-04T20:27:41.273Z,58.12
2023-02-04T20:30:08.590Z,58.22
2023-02-04T20:32:40.739Z,58.21
2023-02-04T20:35:10.103Z,58.18
2023-02-04T20:37:36.849Z,58.41
2023-02-04T20:40:21.971Z,58.59
2023-02-04T20:43:19.841Z,58.59
2023-02-04T20:45:55.771Z,58.67
2023-02-04T20:48:32.806Z,58.71
2023-02-04T20:51:03.181Z,58.80
2023-02-04T20:53:50.272Z,58.97
2023-02-04T20:56:29.957Z,59.14
2023-02-04T20:59:18.012Z,59.29
2023-02-04T21:01:46.998Z,59.34
2023-02-04T21:04:23.041Z,59.43
2023-02-04T21:06:51.847Z,59.41
2023-02-04T21:09:24.301Z,59.44
2023-02-04T21:11:52.522Z,59.43
2023-02-04T21:14:19.202Z,59.51
2023-02-04T21:16:46.318Z,59.72
2023-02-04T21:19:13.470Z,59.57
2023-02-04T21:21:40.410Z,59.79
2023-02-04T21:24:08.027Z,59.78
2023-02-04T21:26:34.909Z,59.85
2023-02-04T21:29:01.974Z,59.80
2023-02-04T21:31:28.739Z,59.80
2023-02-04T21:33:57.083Z,59.70
2023-02-04T21:36:27.821Z,59.96
2023-02-04T21:38:55.607Z,59.75
2023-02-04T21:41:23.053Z,59.92
2023-02-04T21:43:50.468Z,59.91
2023-02-04T21:46:17.736Z,59.96
2023-02-04T21:48:44.839Z,60.09
2023-02-04T21:51:13.296Z,60.09
2023-02-04T21:53:40.353Z,60.05
2023-02-04T21:56:08.859Z,60.17
2023-02-04T21:58:36.301Z,60.06
2023-02-04T22:01:03.026Z,60.28
2023-02-04T22:03:29.723Z,60.32
2023-02-04T22:05:56.405Z,60.17
2023-02-04T22:08:23.114Z,60.31
2023-02-04T22:10:49.732Z,60.46
2023-02-04T22:13:16.411Z,60.62
2023-02-04T22:15:43.017Z,60.64
2023-02-04T22:18:09.733Z,60.81
2023-02-04T22:20:38.605Z,60.78
2023-02-04T22:23:06.118Z,60.99
2023-02-04T22:25:33.225Z,61.00
2023-02-04T22:28:00.174Z,61.07
2023-02-04T22:30:26.879Z,61.26
2023-02-04T22:32:53.574Z,61.19
2023-02-04T22:35:20.171Z,61.24
2023-02-04T22:37:46.843Z,61.42
2023-02-04T22:40:14.064Z,61.42
2023-02-04T22:42:41.071Z,61.68
2023-02-04T22:45:10.340Z,61.91
2023-02-04T22:47:37.113Z,61.99
2023-02-04T22:50:03.911Z,62.10
2023-02-04T22:52:30.621Z,61.95
2023-02-04T22:54:57.257Z,61.98
2023-02-04T22:57:23.858Z,61.97
2023-02-04T22:59:50.481Z,62.18
2023-02-04T23:02:17.154Z,62.20
2023-02-04T23:04:44.192Z,62.04
2023-02-04T23:07:12.266Z,62.23
2023-02-04T23:09:39.783Z,62.29
2023-02-04T23:12:12.967Z,62.58
2023-02-04T23:14:41.787Z,62.48
2023-02-04T23:17:09.668Z,62.58
2023-02-04T23:19:36.613Z,63.00
2023-02-04T23:22:03.729Z,63.02
2023-02-04T23:24:31.182Z,63.21
2023-02-04T23:27:00.303Z,62.88
2023-02-04T23:29:29.529Z,62.99
2023-02-04T23:31:56.490Z,63.06
2023-02-04T23:34:23.251Z,62.81
2023-02-04T23:36:54.117Z,62.94
2023-02-04T23:39:21.452Z,62.83
2023-02-04T23:41:49.414Z,62.88
2023-02-04T23:44:16.537Z,62.66
2023-02-04T23:46:43.575Z,62.74
2023-02-04T23:49:10.342Z,62.83
2023-02-04T23:51:37.148Z,62.74
2023-02-04T23:54:04.116Z,62.67
2023-02-04T23:56:30.847Z,62.65
2023-02-04T23:58:57.585Z,62.80
